sensor_id;sensor_type;location;lat;lon;timestamp;P1;durP1;ratioP1;P2;durP2;ratioP2
23206;SDS011;11773;52.570;13.052;2023-09-07T00:00:27;0.70;;;0.70;;
23206;SDS011;11773;52.570;13.052;2023-09-07T00:02:56;1.07;;;1.07;;
23206;SDS011;11773;52.570;13.052;2023-09-07T00:05:27;1.20;;;1.17;;
23206;SDS011;11773;52.570;13.052;2023-09-07T00:07:56;0.83;;;0.83;;
23206;SDS011;11773;52.570;13.052;2023-09-07T00:10:26;1.07;;;1.00;;
23206;SDS011;11773;52.570;13.052;2023-09-07T00:12:55;0.73;;;0.73;;
23206;SDS011;11773;52.570;13.052;2023-09-07T00:15:25;1.20;;;1.10;;
23206;SDS011;11773;52.570;13.052;2023-09-07T00:17:55;1.93;;;1.33;;
23206;SDS011;11773;52.570;13.052;2023-09-07T00:20:25;1.17;;;1.07;;
23206;SDS011;11773;52.570;13.052;2023-09-07T00:22:54;1.00;;;1.00;;
23206;SDS011;11773;52.570;13.052;2023-09-07T00:25:24;1.30;;;1.20;;
23206;SDS011;11773;52.570;13.052;2023-09-07T00:27:54;0.90;;;0.90;;
23206;SDS011;11773;52.570;13.052;2023-09-07T00:30:23;1.30;;;1.20;;
23206;SDS011;11773;52.570;13.052;2023-09-07T00:32:54;1.13;;;1.03;;
23206;SDS011;11773;52.570;13.052;2023-09-07T00:35:23;0.90;;;0.90;;
23206;SDS011;11773;52.570;13.052;2023-09-07T00:37:53;1.27;;;1.17;;
23206;SDS011;11773;52.570;13.052;2023-09-07T00:40:23;0.87;;;0.87;;
23206;SDS011;11773;52.570;13.052;2023-09-07T00:42:53;1.00;;;1.00;;
23206;SDS011;11773;52.570;13.052;2023-09-07T00:45:23;1.10;;;1.10;;
23206;SDS011;11773;52.570;13.052;2023-09-07T00:47:53;1.00;;;1.00;;
23206;SDS011;11773;52.570;13.052;2023-09-07T00:50:23;0.90;;;0.90;;
23206;SDS011;11773;52.570;13.052;2023-09-07T00:52:52;1.00;;;1.00;;
23206;SDS011;11773;52.570;13.052;2023-09-07T00:55:22;1.00;;;1.00;;
23206;SDS011;11773;52.570;13.052;2023-09-07T00:57:52;0.70;;;0.70;;
23206;SDS011;11773;52.570;13.052;2023-09-07T01:00:23;1.27;;;1.20;;
23206;SDS011;11773;52.570;13.052;2023-09-07T01:02:53;1.00;;;0.90;;
23206;SDS011;11773;52.570;13.052;2023-09-07T01:05:25;0.90;;;0.83;;
23206;SDS011;11773;52.570;13.052;2023-09-07T01:08:23;1.00;;;1.00;;
23206;SDS011;11773;52.570;13.052;2023-09-07T01:10:56;1.10;;;1.10;;
23206;SDS011;11773;52.570;13.052;2023-09-07T01:13:25;0.90;;;0.90;;
23206;SDS011;11773;52.570;13.052;2023-09-07T01:15:55;1.10;;;1.00;;
23206;SDS011;11773;52.570;13.052;2023-09-07T01:18:25;1.20;;;1.10;;
23206;SDS011;11773;52.570;13.052;2023-09-07T01:20:55;0.90;;;0.90;;
23206;SDS011;11773;52.570;13.052;2023-09-07T01:23:26;1.23;;;1.13;;
23206;SDS011;11773;52.570;13.052;2023-09-07T01:25:56;1.07;;;1.07;;
23206;SDS011;11773;52.570;13.052;2023-09-07T01:28:26;1.43;;;1.33;;
23206;SDS011;11773;52.570;13.052;2023-09-07T01:30:56;1.10;;;1.00;;
23206;SDS011;11773;52.570;13.052;2023-09-07T01:33:26;1.00;;;1.00;;
23206;SDS011;11773;52.570;13.052;2023-09-07T01:35:56;1.00;;;1.00;;
23206;SDS011;11773;52.570;13.052;2023-09-07T01:38:25;1.20;;;1.10;;
23206;SDS011;11773;52.570;13.052;2023-09-07T01:40:55;1.00;;;1.00;;
23206;SDS011;11773;52.570;13.052;2023-09-07T01:43:25;1.10;;;1.10;;
23206;SDS011;11773;52.570;13.052;2023-09-07T01:45:55;1.07;;;1.00;;
23206;SDS011;11773;52.570;13.052;2023-09-07T01:48:24;1.07;;;1.03;;
23206;SDS011;11773;52.570;13.052;2023-09-07T01:50:54;0.90;;;0.90;;
23206;SDS011;11773;52.570;13.052;2023-09-07T01:53:23;1.30;;;1.20;;
23206;SDS011;11773;52.570;13.052;2023-09-07T01:55:54;1.00;;;1.00;;
23206;SDS011;11773;52.570;13.052;2023-09-07T01:58:23;0.97;;;0.97;;
23206;SDS011;11773;52.570;13.052;2023-09-07T02:00:57;0.80;;;0.80;;
23206;SDS011;11773;52.570;13.052;2023-09-07T02:03:28;0.97;;;0.97;;
23206;SDS011;11773;52.570;13.052;2023-09-07T02:05:57;0.97;;;0.97;;
23206;SDS011;11773;52.570;13.052;2023-09-07T02:08:27;1.07;;;0.97;;
23206;SDS011;11773;52.570;13.052;2023-09-07T02:10:57;0.93;;;0.80;;
23206;SDS011;11773;52.570;13.052;2023-09-07T02:13:28;1.40;;;1.30;;
23206;SDS011;11773;52.570;13.052;2023-09-07T02:15:57;0.90;;;0.90;;
23206;SDS011;11773;52.570;13.052;2023-09-07T02:18:28;1.20;;;1.10;;
23206;SDS011;11773;52.570;13.052;2023-09-07T02:21:02;1.20;;;1.10;;
23206;SDS011;11773;52.570;13.052;2023-09-07T02:23:33;0.77;;;0.77;;
23206;SDS011;11773;52.570;13.052;2023-09-07T02:26:03;1.13;;;1.03;;
23206;SDS011;11773;52.570;13.052;2023-09-07T02:28:33;0.80;;;0.80;;
23206;SDS011;11773;52.570;13.052;2023-09-07T02:31:03;0.90;;;0.90;;
23206;SDS011;11773;52.570;13.052;2023-09-07T02:33:35;1.10;;;1.00;;
23206;SDS011;11773;52.570;13.052;2023-09-07T02:36:04;1.17;;;1.10;;
23206;SDS011;11773;52.570;13.052;2023-09-07T02:38:34;1.00;;;1.00;;
23206;SDS011;11773;52.570;13.052;2023-09-07T02:41:04;0.93;;;0.93;;
23206;SDS011;11773;52.570;13.052;2023-09-07T02:43:33;0.80;;;0.80;;
23206;SDS011;11773;52.570;13.052;2023-09-07T02:46:03;0.90;;;0.90;;
23206;SDS011;11773;52.570;13.052;2023-09-07T02:48:33;1.07;;;1.07;;
23206;SDS011;11773;52.570;13.052;2023-09-07T02:51:02;1.00;;;1.00;;
23206;SDS011;11773;52.570;13.052;2023-09-07T02:53:32;1.03;;;1.03;;
23206;SDS011;11773;52.570;13.052;2023-09-07T02:56:02;1.10;;;1.00;;
23206;SDS011;11773;52.570;13.052;2023-09-07T02:58:32;0.73;;;0.73;;
23206;SDS011;11773;52.570;13.052;2023-09-07T03:01:06;1.03;;;1.00;;
23206;SDS011;11773;52.570;13.052;2023-09-07T03:03:36;0.90;;;0.90;;
23206;SDS011;11773;52.570;13.052;2023-09-07T03:06:09;0.80;;;0.80;;
23206;SDS011;11773;52.570;13.052;2023-09-07T03:08:40;0.83;;;0.83;;
23206;SDS011;11773;52.570;13.052;2023-09-07T03:11:11;0.73;;;0.73;;
23206;SDS011;11773;52.570;13.052;2023-09-07T03:13:40;1.00;;;1.00;;
23206;SDS011;11773;52.570;13.052;2023-09-07T03:16:10;1.37;;;1.27;;
23206;SDS011;11773;52.570;13.052;2023-09-07T03:18:40;1.10;;;1.10;;
23206;SDS011;11773;52.570;13.052;2023-09-07T03:21:10;1.23;;;1.13;;
23206;SDS011;11773;52.570;13.052;2023-09-07T03:23:40;1.00;;;1.00;;
23206;SDS011;11773;52.570;13.052;2023-09-07T03:26:11;0.90;;;0.90;;
23206;SDS011;11773;52.570;13.052;2023-09-07T03:28:41;1.00;;;1.00;;
23206;SDS011;11773;52.570;13.052;2023-09-07T03:31:10;1.03;;;1.00;;
23206;SDS011;11773;52.570;13.052;2023-09-07T03:33:40;0.93;;;0.90;;
23206;SDS011;11773;52.570;13.052;2023-09-07T03:36:10;0.93;;;0.93;;
23206;SDS011;11773;52.570;13.052;2023-09-07T03:38:41;1.17;;;0.97;;
23206;SDS011;11773;52.570;13.052;2023-09-07T03:41:11;0.83;;;0.83;;
23206;SDS011;11773;52.570;13.052;2023-09-07T03:43:41;0.80;;;0.80;;
23206;SDS011;11773;52.570;13.052;2023-09-07T03:46:11;1.40;;;1.30;;
23206;SDS011;11773;52.570;13.052;2023-09-07T03:48:41;1.57;;;1.10;;
23206;SDS011;11773;52.570;13.052;2023-09-07T03:51:10;1.10;;;1.00;;
23206;SDS011;11773;52.570;13.052;2023-09-07T03:53:40;1.30;;;1.20;;
23206;SDS011;11773;52.570;13.052;2023-09-07T03:56:10;1.40;;;1.30;;
23206;SDS011;11773;52.570;13.052;2023-09-07T03:58:39;0.97;;;0.97;;
23206;SDS011;11773;52.570;13.052;2023-09-07T04:01:09;1.07;;;1.00;;
23206;SDS011;11773;52.570;13.052;2023-09-07T04:03:39;1.20;;;1.10;;
23206;SDS011;11773;52.570;13.052;2023-09-07T04:06:09;0.80;;;0.80;;
23206;SDS011;11773;52.570;13.052;2023-09-07T04:08:39;0.97;;;0.93;;
23206;SDS011;11773;52.570;13.052;2023-09-07T04:11:08;1.20;;;1.10;;
23206;SDS011;11773;52.570;13.052;2023-09-07T04:13:38;1.10;;;1.00;;
23206;SDS011;11773;52.570;13.052;2023-09-07T04:16:08;1.27;;;1.17;;
23206;SDS011;11773;52.570;13.052;2023-09-07T04:18:38;2.03;;;1.10;;
23206;SDS011;11773;52.570;13.052;2023-09-07T04:21:09;0.93;;;0.93;;
23206;SDS011;11773;52.570;13.052;2023-09-07T04:23:39;1.30;;;1.20;;
23206;SDS011;11773;52.570;13.052;2023-09-07T04:26:10;1.27;;;1.17;;
23206;SDS011;11773;52.570;13.052;2023-09-07T04:28:40;1.00;;;1.00;;
23206;SDS011;11773;52.570;13.052;2023-09-07T04:31:09;0.97;;;0.97;;
23206;SDS011;11773;52.570;13.052;2023-09-07T04:33:39;0.93;;;0.80;;
23206;SDS011;11773;52.570;13.052;2023-09-07T04:36:13;0.90;;;0.90;;
23206;SDS011;11773;52.570;13.052;2023-09-07T04:38:43;1.00;;;1.00;;
23206;SDS011;11773;52.570;13.052;2023-09-07T04:41:13;1.37;;;1.27;;
23206;SDS011;11773;52.570;13.052;2023-09-07T04:43:43;0.90;;;0.90;;
23206;SDS011;11773;52.570;13.052;2023-09-07T04:46:13;1.07;;;1.03;;
23206;SDS011;11773;52.570;13.052;2023-09-07T04:48:45;1.33;;;1.23;;
23206;SDS011;11773;52.570;13.052;2023-09-07T04:51:15;1.30;;;1.20;;
23206;SDS011;11773;52.570;13.052;2023-09-07T04:53:44;1.10;;;1.00;;
23206;SDS011;11773;52.570;13.052;2023-09-07T04:56:14;1.03;;;1.03;;
23206;SDS011;11773;52.570;13.052;2023-09-07T04:58:44;1.30;;;1.17;;
23206;SDS011;11773;52.570;13.052;2023-09-07T05:01:14;1.00;;;1.00;;
23206;SDS011;11773;52.570;13.052;2023-09-07T05:03:43;1.50;;;1.40;;
23206;SDS011;11773;52.570;13.052;2023-09-07T05:06:13;1.50;;;1.40;;
23206;SDS011;11773;52.570;13.052;2023-09-07T05:08:43;1.70;;;1.10;;
23206;SDS011;11773;52.570;13.052;2023-09-07T05:11:13;1.30;;;1.20;;
23206;SDS011;11773;52.570;13.052;2023-09-07T05:13:42;1.67;;;1.20;;
23206;SDS011;11773;52.570;13.052;2023-09-07T05:16:12;1.53;;;1.43;;
23206;SDS011;11773;52.570;13.052;2023-09-07T05:18:42;1.27;;;1.17;;
23206;SDS011;11773;52.570;13.052;2023-09-07T05:21:17;1.20;;;1.10;;
23206;SDS011;11773;52.570;13.052;2023-09-07T05:23:43;1.53;;;1.33;;
23206;SDS011;11773;52.570;13.052;2023-09-07T05:26:14;1.30;;;1.20;;
23206;SDS011;11773;52.570;13.052;2023-09-07T05:28:47;2.70;;;1.33;;
23206;SDS011;11773;52.570;13.052;2023-09-07T05:31:16;1.40;;;1.30;;
23206;SDS011;11773;52.570;13.052;2023-09-07T05:33:46;1.10;;;1.00;;
23206;SDS011;11773;52.570;13.052;2023-09-07T05:36:16;0.83;;;0.83;;
23206;SDS011;11773;52.570;13.052;2023-09-07T05:38:45;0.93;;;0.90;;
23206;SDS011;11773;52.570;13.052;2023-09-07T05:41:15;1.23;;;1.13;;
23206;SDS011;11773;52.570;13.052;2023-09-07T05:43:44;1.00;;;1.00;;
23206;SDS011;11773;52.570;13.052;2023-09-07T05:46:16;1.10;;;1.10;;
23206;SDS011;11773;52.570;13.052;2023-09-07T05:48:45;2.43;;;1.80;;
23206;SDS011;11773;52.570;13.052;2023-09-07T05:51:15;1.40;;;1.30;;
23206;SDS011;11773;52.570;13.052;2023-09-07T05:53:45;1.73;;;1.63;;
23206;SDS011;11773;52.570;13.052;2023-09-07T05:56:15;1.47;;;1.37;;
23206;SDS011;11773;52.570;13.052;2023-09-07T05:58:44;1.17;;;1.17;;
23206;SDS011;11773;52.570;13.052;2023-09-07T06:01:14;1.10;;;1.07;;
23206;SDS011;11773;52.570;13.052;2023-09-07T06:03:44;1.30;;;1.20;;
23206;SDS011;11773;52.570;13.052;2023-09-07T06:06:13;1.47;;;1.37;;
23206;SDS011;11773;52.570;13.052;2023-09-07T06:08:43;1.67;;;1.57;;
23206;SDS011;11773;52.570;13.052;2023-09-07T06:11:13;1.80;;;1.40;;
23206;SDS011;11773;52.570;13.052;2023-09-07T06:13:42;1.40;;;1.30;;
23206;SDS011;11773;52.570;13.052;2023-09-07T06:16:13;1.50;;;1.40;;
23206;SDS011;11773;52.570;13.052;2023-09-07T06:18:43;1.20;;;1.10;;
23206;SDS011;11773;52.570;13.052;2023-09-07T06:21:13;1.70;;;1.60;;
23206;SDS011;11773;52.570;13.052;2023-09-07T06:23:43;1.60;;;1.50;;
23206;SDS011;11773;52.570;13.052;2023-09-07T06:26:12;2.67;;;1.77;;
23206;SDS011;11773;52.570;13.052;2023-09-07T06:28:44;1.40;;;1.30;;
23206;SDS011;11773;52.570;13.052;2023-09-07T06:31:14;1.60;;;1.50;;
23206;SDS011;11773;52.570;13.052;2023-09-07T06:33:45;1.43;;;1.33;;
23206;SDS011;11773;52.570;13.052;2023-09-07T06:36:15;1.67;;;1.57;;
23206;SDS011;11773;52.570;13.052;2023-09-07T06:38:46;1.20;;;1.13;;
23206;SDS011;11773;52.570;13.052;2023-09-07T06:41:16;1.73;;;1.63;;
23206;SDS011;11773;52.570;13.052;2023-09-07T06:43:45;1.50;;;1.40;;
23206;SDS011;11773;52.570;13.052;2023-09-07T06:46:15;2.13;;;1.90;;
23206;SDS011;11773;52.570;13.052;2023-09-07T06:48:44;2.00;;;1.90;;
23206;SDS011;11773;52.570;13.052;2023-09-07T06:51:14;1.93;;;1.83;;
23206;SDS011;11773;52.570;13.052;2023-09-07T06:53:44;1.60;;;1.50;;
23206;SDS011;11773;52.570;13.052;2023-09-07T06:56:15;1.93;;;1.80;;
23206;SDS011;11773;52.570;13.052;2023-09-07T06:58:45;2.27;;;2.10;;
23206;SDS011;11773;52.570;13.052;2023-09-07T07:01:14;2.23;;;2.03;;
23206;SDS011;11773;52.570;13.052;2023-09-07T07:03:44;1.93;;;1.83;;
23206;SDS011;11773;52.570;13.052;2023-09-07T07:06:15;2.60;;;2.20;;
23206;SDS011;11773;52.570;13.052;2023-09-07T07:08:44;2.00;;;1.90;;
23206;SDS011;11773;52.570;13.052;2023-09-07T07:11:14;2.00;;;1.90;;
23206;SDS011;11773;52.570;13.052;2023-09-07T07:13:43;2.00;;;1.90;;
23206;SDS011;11773;52.570;13.052;2023-09-07T07:16:13;2.10;;;2.00;;
23206;SDS011;11773;52.570;13.052;2023-09-07T07:18:44;2.37;;;2.27;;
23206;SDS011;11773;52.570;13.052;2023-09-07T07:21:16;2.20;;;2.00;;
23206;SDS011;11773;52.570;13.052;2023-09-07T07:23:46;2.47;;;2.27;;
23206;SDS011;11773;52.570;13.052;2023-09-07T07:26:16;2.27;;;2.17;;
23206;SDS011;11773;52.570;13.052;2023-09-07T07:28:45;2.67;;;2.47;;
23206;SDS011;11773;52.570;13.052;2023-09-07T07:31:18;1.90;;;1.80;;
23206;SDS011;11773;52.570;13.052;2023-09-07T07:33:48;2.30;;;2.10;;
23206;SDS011;11773;52.570;13.052;2023-09-07T07:36:18;2.23;;;2.10;;
23206;SDS011;11773;52.570;13.052;2023-09-07T07:38:48;2.30;;;2.10;;
23206;SDS011;11773;52.570;13.052;2023-09-07T07:41:17;3.33;;;3.03;;
23206;SDS011;11773;52.570;13.052;2023-09-07T07:43:47;3.20;;;2.90;;
23206;SDS011;11773;52.570;13.052;2023-09-07T07:46:16;3.30;;;2.80;;
23206;SDS011;11773;52.570;13.052;2023-09-07T07:48:47;3.47;;;3.17;;
23206;SDS011;11773;52.570;13.052;2023-09-07T07:51:16;3.40;;;3.10;;
23206;SDS011;11773;52.570;13.052;2023-09-07T07:53:46;2.30;;;2.10;;
23206;SDS011;11773;52.570;13.052;2023-09-07T07:56:18;2.90;;;2.70;;
23206;SDS011;11773;52.570;13.052;2023-09-07T07:58:48;2.80;;;2.60;;
23206;SDS011;11773;52.570;13.052;2023-09-07T08:01:18;2.47;;;2.27;;
23206;SDS011;11773;52.570;13.052;2023-09-07T08:03:48;4.03;;;2.60;;
23206;SDS011;11773;52.570;13.052;2023-09-07T08:06:19;2.90;;;2.60;;
23206;SDS011;11773;52.570;13.052;2023-09-07T08:08:48;2.20;;;2.10;;
23206;SDS011;11773;52.570;13.052;2023-09-07T08:11:18;2.83;;;2.47;;
23206;SDS011;11773;52.570;13.052;2023-09-07T08:13:48;2.40;;;2.20;;
23206;SDS011;11773;52.570;13.052;2023-09-07T08:16:18;2.60;;;2.40;;
23206;SDS011;11773;52.570;13.052;2023-09-07T08:18:48;2.77;;;2.50;;
23206;SDS011;11773;52.570;13.052;2023-09-07T08:21:17;2.80;;;2.60;;
23206;SDS011;11773;52.570;13.052;2023-09-07T08:23:47;2.87;;;2.67;;
23206;SDS011;11773;52.570;13.052;2023-09-07T08:26:17;2.27;;;2.10;;
23206;SDS011;11773;52.570;13.052;2023-09-07T08:28:47;2.10;;;1.90;;
23206;SDS011;11773;52.570;13.052;2023-09-07T08:31:16;2.40;;;2.20;;
23206;SDS011;11773;52.570;13.052;2023-09-07T08:33:49;2.40;;;2.20;;
23206;SDS011;11773;52.570;13.052;2023-09-07T08:36:19;2.00;;;1.90;;
23206;SDS011;11773;52.570;13.052;2023-09-07T08:38:50;1.90;;;1.80;;
23206;SDS011;11773;52.570;13.052;2023-09-07T08:41:23;1.60;;;1.50;;
23206;SDS011;11773;52.570;13.052;2023-09-07T08:43:53;1.70;;;1.60;;
23206;SDS011;11773;52.570;13.052;2023-09-07T08:46:26;2.03;;;1.90;;
23206;SDS011;11773;52.570;13.052;2023-09-07T08:48:57;2.67;;;2.20;;
23206;SDS011;11773;52.570;13.052;2023-09-07T08:51:30;2.80;;;2.60;;
23206;SDS011;11773;52.570;13.052;2023-09-07T08:54:00;2.60;;;2.40;;
23206;SDS011;11773;52.570;13.052;2023-09-07T08:56:30;3.00;;;2.70;;
23206;SDS011;11773;52.570;13.052;2023-09-07T08:59:00;3.30;;;3.00;;
23206;SDS011;11773;52.570;13.052;2023-09-07T09:01:32;2.87;;;2.53;;
23206;SDS011;11773;52.570;13.052;2023-09-07T09:04:04;2.70;;;2.50;;
23206;SDS011;11773;52.570;13.052;2023-09-07T09:06:35;2.40;;;2.20;;
23206;SDS011;11773;52.570;13.052;2023-09-07T09:09:05;2.77;;;2.57;;
23206;SDS011;11773;52.570;13.052;2023-09-07T09:11:35;2.77;;;2.47;;
23206;SDS011;11773;52.570;13.052;2023-09-07T09:14:05;2.80;;;2.60;;
23206;SDS011;11773;52.570;13.052;2023-09-07T09:16:34;2.90;;;2.70;;
23206;SDS011;11773;52.570;13.052;2023-09-07T09:19:04;2.60;;;2.40;;
23206;SDS011;11773;52.570;13.052;2023-09-07T09:21:35;2.70;;;2.50;;
23206;SDS011;11773;52.570;13.052;2023-09-07T09:24:08;2.40;;;2.20;;
23206;SDS011;11773;52.570;13.052;2023-09-07T09:26:38;2.63;;;2.43;;
23206;SDS011;11773;52.570;13.052;2023-09-07T09:29:08;2.50;;;2.30;;
23206;SDS011;11773;52.570;13.052;2023-09-07T09:31:38;2.77;;;2.57;;
23206;SDS011;11773;52.570;13.052;2023-09-07T09:34:08;2.73;;;2.53;;
23206;SDS011;11773;52.570;13.052;2023-09-07T09:36:41;3.67;;;3.37;;
23206;SDS011;11773;52.570;13.052;2023-09-07T09:39:20;2.87;;;2.67;;
23206;SDS011;11773;52.570;13.052;2023-09-07T09:41:52;3.67;;;2.90;;
23206;SDS011;11773;52.570;13.052;2023-09-07T09:44:23;2.83;;;2.63;;
23206;SDS011;11773;52.570;13.052;2023-09-07T09:46:53;2.47;;;2.27;;
23206;SDS011;11773;52.570;13.052;2023-09-07T09:49:24;2.47;;;2.27;;
23206;SDS011;11773;52.570;13.052;2023-09-07T09:51:55;3.77;;;2.70;;
23206;SDS011;11773;52.570;13.052;2023-09-07T09:54:25;2.60;;;2.40;;
23206;SDS011;11773;52.570;13.052;2023-09-07T09:56:57;2.70;;;2.50;;
23206;SDS011;11773;52.570;13.052;2023-09-07T09:59:26;3.03;;;2.70;;
23206;SDS011;11773;52.570;13.052;2023-09-07T10:01:56;2.53;;;2.33;;
23206;SDS011;11773;52.570;13.052;2023-09-07T10:04:27;2.60;;;2.40;;
23206;SDS011;11773;52.570;13.052;2023-09-07T10:06:59;2.43;;;2.23;;
23206;SDS011;11773;52.570;13.052;2023-09-07T10:09:36;2.20;;;2.00;;
23206;SDS011;11773;52.570;13.052;2023-09-07T10:12:04;2.40;;;2.20;;
23206;SDS011;11773;52.570;13.052;2023-09-07T10:14:40;2.63;;;2.43;;
23206;SDS011;11773;52.570;13.052;2023-09-07T10:17:21;2.80;;;2.60;;
23206;SDS011;11773;52.570;13.052;2023-09-07T10:20:01;2.93;;;2.60;;
23206;SDS011;11773;52.570;13.052;2023-09-07T10:22:35;2.40;;;2.17;;
23206;SDS011;11773;52.570;13.052;2023-09-07T10:25:05;3.50;;;3.20;;
23206;SDS011;11773;52.570;13.052;2023-09-07T10:27:38;2.93;;;2.50;;
23206;SDS011;11773;52.570;13.052;2023-09-07T10:30:11;3.00;;;2.53;;
23206;SDS011;11773;52.570;13.052;2023-09-07T10:32:43;2.60;;;2.10;;
23206;SDS011;11773;52.570;13.052;2023-09-07T10:35:17;2.53;;;2.33;;
23206;SDS011;11773;52.570;13.052;2023-09-07T10:37:52;2.70;;;2.50;;
23206;SDS011;11773;52.570;13.052;2023-09-07T10:40:22;3.03;;;2.83;;
23206;SDS011;11773;52.570;13.052;2023-09-07T10:43:02;2.53;;;2.37;;
23206;SDS011;11773;52.570;13.052;2023-09-07T10:45:32;3.13;;;2.87;;
23206;SDS011;11773;52.570;13.052;2023-09-07T10:48:02;3.00;;;2.57;;
23206;SDS011;11773;52.570;13.052;2023-09-07T10:50:41;2.83;;;2.63;;
23206;SDS011;11773;52.570;13.052;2023-09-07T10:53:25;3.03;;;2.83;;
23206;SDS011;11773;52.570;13.052;2023-09-07T10:56:03;3.13;;;2.83;;
23206;SDS011;11773;52.570;13.052;2023-09-07T10:58:35;2.90;;;2.70;;
23206;SDS011;11773;52.570;13.052;2023-09-07T11:01:10;2.70;;;2.50;;
23206;SDS011;11773;52.570;13.052;2023-09-07T11:03:42;3.00;;;2.80;;
23206;SDS011;11773;52.570;13.052;2023-09-07T11:06:13;2.00;;;1.90;;
23206;SDS011;11773;52.570;13.052;2023-09-07T11:08:46;2.70;;;2.50;;
23206;SDS011;11773;52.570;13.052;2023-09-07T11:11:16;2.83;;;2.63;;
23206;SDS011;11773;52.570;13.052;2023-09-07T11:13:46;2.80;;;2.60;;
23206;SDS011;11773;52.570;13.052;2023-09-07T11:16:15;3.10;;;2.87;;
23206;SDS011;11773;52.570;13.052;2023-09-07T11:18:47;2.80;;;2.60;;
23206;SDS011;11773;52.570;13.052;2023-09-07T11:21:18;2.37;;;2.17;;
23206;SDS011;11773;52.570;13.052;2023-09-07T11:23:50;2.67;;;2.47;;
23206;SDS011;11773;52.570;13.052;2023-09-07T11:26:20;2.57;;;2.37;;
23206;SDS011;11773;52.570;13.052;2023-09-07T11:28:50;2.80;;;2.60;;
23206;SDS011;11773;52.570;13.052;2023-09-07T11:31:19;3.17;;;2.83;;
23206;SDS011;11773;52.570;13.052;2023-09-07T11:33:49;2.60;;;2.40;;
23206;SDS011;11773;52.570;13.052;2023-09-07T11:36:19;3.70;;;3.27;;
23206;SDS011;11773;52.570;13.052;2023-09-07T11:38:50;2.47;;;2.27;;
23206;SDS011;11773;52.570;13.052;2023-09-07T11:41:20;2.87;;;2.67;;
23206;SDS011;11773;52.570;13.052;2023-09-07T11:43:49;2.73;;;2.50;;
23206;SDS011;11773;52.570;13.052;2023-09-07T11:46:19;2.80;;;2.60;;
23206;SDS011;11773;52.570;13.052;2023-09-07T11:48:49;2.53;;;2.33;;
23206;SDS011;11773;52.570;13.052;2023-09-07T11:51:19;2.80;;;2.60;;
23206;SDS011;11773;52.570;13.052;2023-09-07T11:53:49;3.03;;;2.73;;
23206;SDS011;11773;52.570;13.052;2023-09-07T11:56:19;2.93;;;2.73;;
23206;SDS011;11773;52.570;13.052;2023-09-07T11:58:49;2.60;;;2.40;;
23206;SDS011;11773;52.570;13.052;2023-09-07T12:01:18;2.83;;;2.60;;
23206;SDS011;11773;52.570;13.052;2023-09-07T12:03:48;2.70;;;2.50;;
23206;SDS011;11773;52.570;13.052;2023-09-07T12:06:18;2.87;;;2.67;;
23206;SDS011;11773;52.570;13.052;2023-09-07T12:09:03;2.70;;;2.50;;
23206;SDS011;11773;52.570;13.052;2023-09-07T12:11:36;2.60;;;2.40;;
23206;SDS011;11773;52.570;13.052;2023-09-07T12:14:05;2.43;;;2.30;;
23206;SDS011;11773;52.570;13.052;2023-09-07T12:16:35;2.50;;;2.30;;
23206;SDS011;11773;52.570;13.052;2023-09-07T12:19:05;2.50;;;2.30;;
23206;SDS011;11773;52.570;13.052;2023-09-07T12:21:36;2.10;;;2.00;;
23206;SDS011;11773;52.570;13.052;2023-09-07T12:24:05;2.10;;;1.97;;
23206;SDS011;11773;52.570;13.052;2023-09-07T12:26:35;1.90;;;1.80;;
23206;SDS011;11773;52.570;13.052;2023-09-07T12:29:05;2.33;;;2.13;;
23206;SDS011;11773;52.570;13.052;2023-09-07T12:31:35;2.00;;;1.90;;
23206;SDS011;11773;52.570;13.052;2023-09-07T12:34:04;2.50;;;2.10;;
23206;SDS011;11773;52.570;13.052;2023-09-07T12:36:35;2.30;;;2.10;;
23206;SDS011;11773;52.570;13.052;2023-09-07T12:39:05;2.93;;;2.30;;
23206;SDS011;11773;52.570;13.052;2023-09-07T12:41:34;2.20;;;2.00;;
23206;SDS011;11773;52.570;13.052;2023-09-07T12:44:04;2.50;;;2.30;;
23206;SDS011;11773;52.570;13.052;2023-09-07T12:46:34;1.97;;;1.87;;
23206;SDS011;11773;52.570;13.052;2023-09-07T12:49:04;2.80;;;2.60;;
23206;SDS011;11773;52.570;13.052;2023-09-07T12:51:33;2.40;;;2.20;;
23206;SDS011;11773;52.570;13.052;2023-09-07T12:54:03;2.33;;;2.13;;
23206;SDS011;11773;52.570;13.052;2023-09-07T12:56:33;2.40;;;2.20;;
23206;SDS011;11773;52.570;13.052;2023-09-07T12:59:03;2.40;;;2.20;;
23206;SDS011;11773;52.570;13.052;2023-09-07T13:01:33;3.00;;;2.70;;
23206;SDS011;11773;52.570;13.052;2023-09-07T13:04:02;2.20;;;2.10;;
23206;SDS011;11773;52.570;13.052;2023-09-07T13:06:32;2.33;;;2.13;;
23206;SDS011;11773;52.570;13.052;2023-09-07T13:09:02;1.90;;;1.80;;
23206;SDS011;11773;52.570;13.052;2023-09-07T13:11:32;2.43;;;2.23;;
23206;SDS011;11773;52.570;13.052;2023-09-07T13:14:01;2.83;;;2.40;;
23206;SDS011;11773;52.570;13.052;2023-09-07T13:16:33;2.40;;;2.20;;
23206;SDS011;11773;52.570;13.052;2023-09-07T13:19:03;2.00;;;1.90;;
23206;SDS011;11773;52.570;13.052;2023-09-07T13:21:33;2.30;;;2.10;;
23206;SDS011;11773;52.570;13.052;2023-09-07T13:24:03;2.20;;;2.10;;
23206;SDS011;11773;52.570;13.052;2023-09-07T13:26:33;2.50;;;2.30;;
23206;SDS011;11773;52.570;13.052;2023-09-07T13:29:02;1.97;;;1.77;;
23206;SDS011;11773;52.570;13.052;2023-09-07T13:31:32;2.20;;;2.10;;
23206;SDS011;11773;52.570;13.052;2023-09-07T13:34:02;2.50;;;2.30;;
23206;SDS011;11773;52.570;13.052;2023-09-07T13:36:31;2.30;;;2.10;;
23206;SDS011;11773;52.570;13.052;2023-09-07T13:39:01;2.30;;;2.10;;
23206;SDS011;11773;52.570;13.052;2023-09-07T13:41:31;2.07;;;1.97;;
23206;SDS011;11773;52.570;13.052;2023-09-07T13:44:00;2.10;;;2.00;;
23206;SDS011;11773;52.570;13.052;2023-09-07T13:46:30;2.40;;;2.20;;
23206;SDS011;11773;52.570;13.052;2023-09-07T13:49:01;2.57;;;2.37;;
23206;SDS011;11773;52.570;13.052;2023-09-07T13:51:30;2.57;;;2.37;;
23206;SDS011;11773;52.570;13.052;2023-09-07T13:54:01;2.73;;;2.53;;
23206;SDS011;11773;52.570;13.052;2023-09-07T13:56:33;2.60;;;2.17;;
23206;SDS011;11773;52.570;13.052;2023-09-07T13:59:04;2.30;;;2.20;;
23206;SDS011;11773;52.570;13.052;2023-09-07T14:01:34;2.60;;;2.40;;
23206;SDS011;11773;52.570;13.052;2023-09-07T14:04:04;2.17;;;2.07;;
23206;SDS011;11773;52.570;13.052;2023-09-07T14:06:35;2.93;;;2.30;;
23206;SDS011;11773;52.570;13.052;2023-09-07T14:09:04;1.77;;;1.67;;
23206;SDS011;11773;52.570;13.052;2023-09-07T14:11:34;1.80;;;1.70;;
23206;SDS011;11773;52.570;13.052;2023-09-07T14:14:04;2.40;;;2.20;;
23206;SDS011;11773;52.570;13.052;2023-09-07T14:16:34;2.60;;;2.40;;
23206;SDS011;11773;52.570;13.052;2023-09-07T14:19:04;2.70;;;2.50;;
23206;SDS011;11773;52.570;13.052;2023-09-07T14:21:34;2.60;;;2.40;;
23206;SDS011;11773;52.570;13.052;2023-09-07T14:24:03;2.50;;;2.30;;
23206;SDS011;11773;52.570;13.052;2023-09-07T14:26:33;2.13;;;2.00;;
23206;SDS011;11773;52.570;13.052;2023-09-07T14:29:03;2.40;;;2.20;;
23206;SDS011;11773;52.570;13.052;2023-09-07T14:31:32;2.20;;;2.10;;
23206;SDS011;11773;52.570;13.052;2023-09-07T14:34:02;2.33;;;2.13;;
23206;SDS011;11773;52.570;13.052;2023-09-07T14:36:31;2.20;;;2.10;;
23206;SDS011;11773;52.570;13.052;2023-09-07T14:39:01;1.90;;;1.80;;
23206;SDS011;11773;52.570;13.052;2023-09-07T14:41:40;2.23;;;2.03;;
23206;SDS011;11773;52.570;13.052;2023-09-07T14:44:05;2.10;;;1.90;;
23206;SDS011;11773;52.570;13.052;2023-09-07T14:46:34;1.90;;;1.80;;
23206;SDS011;11773;52.570;13.052;2023-09-07T14:49:04;2.30;;;2.20;;
23206;SDS011;11773;52.570;13.052;2023-09-07T14:51:34;3.70;;;2.40;;